createdAt,value
2022-12-23T00:01:16.084Z,1.63
2022-12-23T00:04:18.696Z,1.59
2022-12-23T00:07:21.585Z,1.68
2022-12-23T00:10:25.826Z,1.63
2022-12-23T00:13:46.433Z,1.67
2022-12-23T00:16:50.866Z,1.56
2022-12-23T00:19:53.707Z,1.57
2022-12-23T00:23:06.049Z,1.59
2022-12-23T00:26:23.677Z,1.68
2022-12-23T00:29:26.278Z,1.71
2022-12-23T00:32:29.215Z,1.74
2022-12-23T00:35:32.692Z,1.76
2022-12-23T00:38:53.811Z,1.64
2022-12-23T00:42:15.177Z,1.62
2022-12-23T00:45:17.782Z,1.68
2022-12-23T00:48:39.149Z,1.62
2022-12-23T00:51:41.548Z,1.64
2022-12-23T00:54:44.453Z,1.57
2022-12-23T00:57:47.200Z,1.58
2022-12-23T01:01:08.265Z,1.73
2022-12-23T01:04:31.849Z,1.73
2022-12-23T01:07:34.989Z,1.65
2022-12-23T01:10:48.439Z,1.69
2022-12-23T01:13:51.782Z,1.69
2022-12-23T01:16:54.285Z,1.68
2022-12-23T01:19:57.093Z,1.68
2022-12-23T01:22:59.499Z,1.66
2022-12-23T01:26:05.320Z,1.68
2022-12-23T01:29:08.156Z,1.73
2022-12-23T01:32:11.051Z,1.61
2022-12-23T01:35:13.727Z,1.54
2022-12-23T01:38:16.654Z,1.46
2022-12-23T01:41:44.265Z,1.41
2022-12-23T01:45:01.583Z,1.49
2022-12-23T01:48:12.371Z,1.56
2022-12-23T01:51:28.607Z,1.62
2022-12-23T01:54:31.301Z,1.54
2022-12-23T01:57:36.868Z,1.56
2022-12-23T02:01:01.348Z,1.49
2022-12-23T02:04:10.485Z,1.43
2022-12-23T02:07:32.807Z,1.49
2022-12-23T02:11:06.470Z,1.46
2022-12-23T02:15:12.592Z,1.48
2022-12-23T02:18:30.138Z,1.62
2022-12-23T02:22:06.607Z,1.58
2022-12-23T02:26:01.186Z,1.54
2022-12-23T02:29:03.842Z,1.50
2022-12-23T02:32:24.555Z,1.59
2022-12-23T02:35:36.261Z,1.57
2022-12-23T02:38:47.994Z,1.54
2022-12-23T02:42:07.186Z,1.62
2022-12-23T02:45:13.163Z,1.60
2022-12-23T02:48:47.044Z,1.55
2022-12-23T02:51:54.579Z,1.54
2022-12-23T02:55:01.884Z,1.57
2022-12-23T02:58:10.063Z,1.57
2022-12-23T03:01:16.161Z,1.55
2022-12-23T03:04:19.009Z,1.55
2022-12-23T03:07:31.511Z,1.56
2022-12-23T03:11:05.462Z,1.56
2022-12-23T03:14:13.875Z,1.58
2022-12-23T03:17:25.880Z,1.59
2022-12-23T03:20:41.960Z,1.50
2022-12-23T03:23:55.952Z,1.55
2022-12-23T03:27:10.217Z,1.47
2022-12-23T03:30:16.786Z,1.53
2022-12-23T03:33:24.840Z,1.50
2022-12-23T03:36:37.469Z,1.54
2022-12-23T03:39:51.289Z,1.56
2022-12-23T03:43:03.439Z,1.54
2022-12-23T03:46:20.712Z,1.56
2022-12-23T03:49:30.808Z,1.59
2022-12-23T03:52:41.410Z,1.53
2022-12-23T03:55:50.837Z,1.53
2022-12-23T03:59:14.775Z,1.61
2022-12-23T04:02:36.219Z,1.56
2022-12-23T04:05:41.938Z,1.53
2022-12-23T04:08:46.770Z,1.48
2022-12-23T04:11:49.645Z,1.43
2022-12-23T04:14:52.670Z,1.39
2022-12-23T04:17:57.556Z,1.39
2022-12-23T04:21:01.181Z,1.40
2022-12-23T04:24:03.829Z,1.47
2022-12-23T04:27:07.502Z,1.44
2022-12-23T04:30:12.289Z,1.36
2022-12-23T04:33:15.159Z,1.31
2022-12-23T04:36:17.865Z,1.36
2022-12-23T04:39:20.759Z,1.35
2022-12-23T04:42:23.655Z,1.45
2022-12-23T04:45:26.632Z,1.45
2022-12-23T04:48:29.081Z,1.30
2022-12-23T04:51:31.901Z,1.29
2022-12-23T04:54:34.555Z,1.28
2022-12-23T04:57:37.203Z,1.31
2022-12-23T05:00:40.288Z,1.44
2022-12-23T05:03:42.983Z,1.46
2022-12-23T05:06:45.536Z,1.35
2022-12-23T05:09:48.347Z,1.33
2022-12-23T05:12:50.789Z,1.33
2022-12-23T05:15:54.860Z,1.37
2022-12-23T05:18:57.852Z,1.36
2022-12-23T05:22:00.462Z,1.38
2022-12-23T05:25:03.045Z,1.49
2022-12-23T05:28:08.087Z,1.56
2022-12-23T05:31:14.075Z,1.58
2022-12-23T05:34:16.809Z,1.52
2022-12-23T05:37:19.578Z,1.55
2022-12-23T05:40:28.150Z,1.49
2022-12-23T05:43:34.900Z,1.60
2022-12-23T05:46:38.223Z,1.59
2022-12-23T05:49:41.225Z,1.62
2022-12-23T05:52:44.179Z,1.58
2022-12-23T05:55:47.246Z,1.53
2022-12-23T05:58:49.819Z,1.55
2022-12-23T06:01:52.651Z,1.54
2022-12-23T06:04:55.438Z,1.51
2022-12-23T06:07:58.246Z,1.51
2022-12-23T06:11:05.626Z,1.61
2022-12-23T06:14:08.095Z,1.62
2022-12-23T06:17:11.102Z,1.65
2022-12-23T06:20:20.314Z,1.71
2022-12-23T06:23:23.842Z,1.67
2022-12-23T06:26:26.681Z,1.72
2022-12-23T06:29:29.869Z,1.73
2022-12-23T06:32:37.918Z,1.70
2022-12-23T06:35:41.338Z,1.73
2022-12-23T06:38:44.171Z,1.65
2022-12-23T06:41:47.385Z,1.69
2022-12-23T06:44:49.869Z,1.75
2022-12-23T06:47:52.780Z,1.71
2022-12-23T06:50:56.524Z,1.67
2022-12-23T06:54:00.142Z,1.61
2022-12-23T06:57:03.015Z,1.62
2022-12-23T07:00:06.608Z,1.63
2022-12-23T07:03:09.724Z,1.79
2022-12-23T07:06:13.111Z,1.80
2022-12-23T07:09:15.984Z,1.70
2022-12-23T07:12:19.560Z,1.70
2022-12-23T07:15:22.640Z,1.72
2022-12-23T07:18:26.236Z,1.68
2022-12-23T07:21:30.061Z,1.75
2022-12-23T07:24:33.228Z,1.70
2022-12-23T07:27:35.897Z,1.68
2022-12-23T07:30:42.034Z,1.68
2022-12-23T07:33:44.964Z,1.82
2022-12-23T07:36:47.803Z,1.81
2022-12-23T07:39:50.540Z,1.76
2022-12-23T07:42:59.075Z,1.84
2022-12-23T07:46:07.462Z,1.81
2022-12-23T07:49:10.776Z,1.82
2022-12-23T07:52:13.196Z,1.84
2022-12-23T07:55:16.202Z,1.83
2022-12-23T07:58:18.855Z,1.88
2022-12-23T08:01:22.261Z,1.91
2022-12-23T08:04:25.196Z,1.93
2022-12-23T08:07:27.910Z,1.95
2022-12-23T08:10:30.965Z,1.94
2022-12-23T08:13:36.113Z,2.05
2022-12-23T08:16:43.599Z,2.09
2022-12-23T08:19:48.470Z,2.07
2022-12-23T08:22:51.093Z,2.12
2022-12-23T08:26:00.431Z,2.11
2022-12-23T08:29:03.104Z,2.19
2022-12-23T08:32:06.240Z,2.22
2022-12-23T08:35:09.091Z,2.19
2022-12-23T08:38:12.046Z,2.25
2022-12-23T08:41:18.665Z,2.15
2022-12-23T08:44:22.582Z,2.20
2022-12-23T08:47:25.276Z,2.27
2022-12-23T08:50:31.467Z,2.30
2022-12-23T08:53:35.578Z,2.39
2022-12-23T08:56:42.204Z,2.51
2022-12-23T08:59:45.079Z,2.48
2022-12-23T09:02:48.111Z,2.51
2022-12-23T09:05:51.052Z,2.48
2022-12-23T09:08:54.024Z,2.60
2022-12-23T09:11:57.133Z,2.62
2022-12-23T09:15:00.306Z,2.57
2022-12-23T09:18:02.797Z,2.48
2022-12-23T09:21:11.194Z,2.55
2022-12-23T09:24:13.627Z,2.53
2022-12-23T09:27:16.634Z,2.66
2022-12-23T09:30:19.272Z,2.72
2022-12-23T09:33:21.988Z,2.71
2022-12-23T09:36:24.942Z,2.78
2022-12-23T09:39:28.670Z,2.82
2022-12-23T09:42:51.032Z,2.83
2022-12-23T09:46:15.295Z,2.86
2022-12-23T09:49:18.979Z,3.00
2022-12-23T09:52:46.843Z,3.07
2022-12-23T09:55:53.671Z,3.04
2022-12-23T09:59:19.728Z,3.01
2022-12-23T10:02:32.516Z,3.12
2022-12-23T10:06:11.002Z,3.02
2022-12-23T10:09:15.205Z,2.96
2022-12-23T10:12:40.248Z,3.08
2022-12-23T10:15:48.002Z,3.11
2022-12-23T10:18:57.308Z,3.08
2022-12-23T10:22:06.349Z,3.20
2022-12-23T10:25:28.696Z,3.20
2022-12-23T10:28:31.219Z,3.24
2022-12-23T10:32:12.721Z,3.27
2022-12-23T10:35:39.671Z,3.30
2022-12-23T10:38:49.481Z,3.37
2022-12-23T10:41:54.990Z,3.54
2022-12-23T10:45:14.194Z,3.45
2022-12-23T10:48:41.733Z,3.46
2022-12-23T10:51:57.910Z,3.49
2022-12-23T10:55:00.506Z,3.54
2022-12-23T10:58:18.500Z,3.71
2022-12-23T11:01:27.116Z,3.74
2022-12-23T11:04:35.624Z,3.89
2022-12-23T11:07:46.208Z,3.83
2022-12-23T11:10:50.630Z,3.76
2022-12-23T11:13:53.323Z,3.71
2022-12-23T11:16:56.119Z,3.65
2022-12-23T11:20:15.848Z,3.75
2022-12-23T11:23:28.189Z,3.88
2022-12-23T11:26:30.955Z,3.87
2022-12-23T11:29:43.936Z,3.70
2022-12-23T11:32:46.568Z,3.67
2022-12-23T11:36:00.734Z,3.71
2022-12-23T11:39:12.395Z,3.73
2022-12-23T11:42:20.626Z,3.73
2022-12-23T11:45:26.169Z,3.80
2022-12-23T11:48:30.559Z,3.91
2022-12-23T11:51:33.187Z,3.91
2022-12-23T11:54:37.077Z,4.04
2022-12-23T11:57:44.504Z,4.00
2022-12-23T12:00:57.734Z,4.04
2022-12-23T12:04:03.384Z,4.00
2022-12-23T12:07:11.841Z,4.00
2022-12-23T12:10:29.337Z,3.98
2022-12-23T12:13:48.314Z,4.00
2022-12-23T12:17:05.753Z,4.14
2022-12-23T12:20:26.673Z,4.19
2022-12-23T12:23:48.548Z,4.23
2022-12-23T12:26:58.159Z,4.25
2022-12-23T12:30:08.422Z,4.35
2022-12-23T12:33:36.264Z,4.39
2022-12-23T12:37:13.636Z,4.29
2022-12-23T12:40:28.471Z,4.26
2022-12-23T12:43:33.483Z,4.28
2022-12-23T12:46:54.089Z,4.22
2022-12-23T12:50:04.914Z,4.24
2022-12-23T12:53:18.218Z,4.27
2022-12-23T12:56:30.643Z,4.26
2022-12-23T12:59:38.348Z,4.23
2022-12-23T13:03:28.109Z,4.19
2022-12-23T13:06:38.895Z,4.11
2022-12-23T13:10:11.696Z,4.12
2022-12-23T13:13:48.394Z,4.15
2022-12-23T13:17:12.533Z,4.24
2022-12-23T13:20:20.290Z,4.18
2022-12-23T13:23:44.164Z,4.18
2022-12-23T13:27:28.640Z,4.15
2022-12-23T13:30:44.072Z,4.12
2022-12-23T13:34:14.293Z,4.13
2022-12-23T13:37:42.318Z,4.13
2022-12-23T13:41:03.515Z,4.08
2022-12-23T13:44:10.760Z,4.07
2022-12-23T13:47:16.464Z,4.06
2022-12-23T13:50:25.775Z,4.00
2022-12-23T13:53:51.409Z,3.95
2022-12-23T13:57:08.547Z,3.96
2022-12-23T14:00:17.471Z,3.99
2022-12-23T14:03:24.649Z,3.95
2022-12-23T14:06:33.199Z,3.94
2022-12-23T14:09:38.378Z,3.95
2022-12-23T14:12:43.301Z,3.95
2022-12-23T14:16:00.892Z,3.94
2022-12-23T14:19:18.739Z,3.93
2022-12-23T14:22:54.318Z,3.91
2022-12-23T14:26:15.445Z,3.90
2022-12-23T14:29:50.337Z,3.90
2022-12-23T14:32:59.023Z,3.90
2022-12-23T14:36:23.639Z,3.90
2022-12-23T14:39:31.921Z,3.95
2022-12-23T14:42:42.820Z,3.97
2022-12-23T14:45:45.980Z,3.98
2022-12-23T14:48:48.361Z,3.95
2022-12-23T14:51:51.193Z,3.97
2022-12-23T14:55:21.009Z,3.97
2022-12-23T14:58:16.714Z,3.97
2022-12-23T15:01:34.130Z,3.97
2022-12-23T15:04:51.066Z,3.97
2022-12-23T15:07:56.120Z,3.97
2022-12-23T15:10:59.843Z,3.96
2022-12-23T15:14:11.141Z,3.97
2022-12-23T15:17:17.420Z,3.98
2022-12-23T15:20:24.159Z,3.97
2022-12-23T15:23:27.582Z,3.94
2022-12-23T15:26:32.860Z,3.94
2022-12-23T15:29:36.333Z,3.97
2022-12-23T15:32:43.000Z,3.96
2022-12-23T15:35:46.582Z,3.98
2022-12-23T15:38:49.102Z,3.97
2022-12-23T15:41:51.944Z,3.97
2022-12-23T15:44:55.039Z,3.98
2022-12-23T15:47:58.141Z,3.99
2022-12-23T15:51:07.544Z,4.01
2022-12-23T15:54:23.243Z,4.02
2022-12-23T15:57:28.461Z,4.02
2022-12-23T16:00:49.586Z,3.99
2022-12-23T16:03:56.129Z,4.04
2022-12-23T16:06:59.027Z,4.07
2022-12-23T16:10:13.123Z,4.07
2022-12-23T16:13:20.517Z,4.08
2022-12-23T16:16:42.384Z,4.13
2022-12-23T16:19:49.386Z,4.11
2022-12-23T16:22:54.392Z,4.11
2022-12-23T16:26:00.402Z,4.10
2022-12-23T16:29:03.284Z,4.07
2022-12-23T16:32:14.067Z,4.06
2022-12-23T16:35:39.447Z,4.08
2022-12-23T16:38:42.534Z,4.04
2022-12-23T16:41:45.533Z,3.98
2022-12-23T16:44:48.678Z,4.02
2022-12-23T16:47:55.790Z,4.01
2022-12-23T16:51:01.074Z,4.02
2022-12-23T16:54:03.545Z,3.98
2022-12-23T16:57:06.596Z,3.98
2022-12-23T17:00:17.385Z,3.96
2022-12-23T17:03:20.867Z,3.87
2022-12-23T17:06:24.549Z,3.85
2022-12-23T17:09:27.257Z,3.82
2022-12-23T17:12:29.991Z,3.72
2022-12-23T17:15:33.056Z,3.58
2022-12-23T17:18:37.065Z,3.80
2022-12-23T17:21:43.170Z,3.64
2022-12-23T17:24:45.576Z,3.44
2022-12-23T17:27:52.168Z,3.39
2022-12-23T17:30:56.679Z,3.45
2022-12-23T17:34:00.321Z,3.56
2022-12-23T17:37:03.237Z,3.66
2022-12-23T17:40:07.492Z,3.75
2022-12-23T17:43:15.982Z,3.81
2022-12-23T17:46:19.048Z,3.81
2022-12-23T17:49:21.646Z,3.77
2022-12-23T17:52:24.743Z,3.75
2022-12-23T17:55:27.285Z,3.92
2022-12-23T17:58:30.067Z,3.98
2022-12-23T18:01:32.846Z,4.13
2022-12-23T18:04:35.587Z,4.18
2022-12-23T18:07:38.334Z,4.29
2022-12-23T18:10:42.080Z,4.31
2022-12-23T18:13:44.892Z,4.34
2022-12-23T18:16:48.125Z,4.46
2022-12-23T18:19:50.942Z,4.44
2022-12-23T18:22:55.038Z,4.44
2022-12-23T18:25:58.286Z,4.42
2022-12-23T18:29:01.129Z,4.34
2022-12-23T18:32:04.160Z,4.32
2022-12-23T18:35:30.039Z,4.30
2022-12-23T18:38:32.833Z,4.24
2022-12-23T18:41:35.600Z,4.23
2022-12-23T18:44:38.523Z,4.19
2022-12-23T18:47:41.393Z,4.17
2022-12-23T18:50:45.758Z,4.14
2022-12-23T18:53:48.826Z,4.19
2022-12-23T18:56:51.199Z,4.22
2022-12-23T18:59:54.022Z,4.25
2022-12-23T19:02:57.285Z,4.21
2022-12-23T19:06:06.859Z,4.20
2022-12-23T19:09:16.554Z,4.31
2022-12-23T19:12:19.845Z,4.24
2022-12-23T19:15:23.520Z,4.31
2022-12-23T19:18:26.385Z,4.30
2022-12-23T19:21:29.061Z,4.28
2022-12-23T19:24:32.112Z,4.36
2022-12-23T19:27:34.661Z,4.39
2022-12-23T19:30:41.986Z,4.34
2022-12-23T19:33:46.594Z,4.32
2022-12-23T19:36:49.640Z,4.19
2022-12-23T19:39:52.498Z,4.16
2022-12-23T19:42:55.395Z,4.10
2022-12-23T19:45:59.749Z,4.05
2022-12-23T19:49:02.929Z,4.04
2022-12-23T19:52:05.475Z,3.96
2022-12-23T19:55:08.736Z,3.82
2022-12-23T19:58:11.234Z,3.69
2022-12-23T20:01:31.974Z,3.58
2022-12-23T20:04:34.765Z,3.40
2022-12-23T20:07:37.843Z,3.25
2022-12-23T20:10:42.840Z,3.07
2022-12-23T20:13:46.818Z,2.93
2022-12-23T20:16:49.634Z,3.08
2022-12-23T20:19:52.436Z,2.96
2022-12-23T20:22:54.966Z,2.90
2022-12-23T20:25:58.194Z,2.79
2022-12-23T20:29:00.891Z,2.68
2022-12-23T20:32:03.917Z,2.64
2022-12-23T20:35:06.918Z,2.68
2022-12-23T20:38:09.789Z,2.52
2022-12-23T20:41:16.229Z,2.42
2022-12-23T20:44:36.513Z,2.26
2022-12-23T20:47:40.094Z,2.21
2022-12-23T20:50:51.242Z,2.07
2022-12-23T20:53:56.167Z,2.07
2022-12-23T20:56:59.288Z,2.09
2022-12-23T21:00:05.065Z,2.04
2022-12-23T21:03:10.653Z,2.00
2022-12-23T21:06:13.645Z,2.00
2022-12-23T21:09:16.667Z,2.09
2022-12-23T21:12:19.461Z,2.14
2022-12-23T21:15:23.580Z,1.98
2022-12-23T21:18:26.130Z,1.97
2022-12-23T21:21:31.339Z,1.98
2022-12-23T21:24:33.790Z,1.84
2022-12-23T21:27:36.657Z,1.88
2022-12-23T21:30:44.378Z,1.83
2022-12-23T21:33:48.301Z,1.89
2022-12-23T21:36:51.170Z,2.27
2022-12-23T21:39:54.055Z,2.36
2022-12-23T21:42:56.695Z,2.31
2022-12-23T21:46:01.712Z,2.35
2022-12-23T21:49:04.510Z,2.39
2022-12-23T21:52:07.464Z,2.34
2022-12-23T21:55:11.186Z,2.15
2022-12-23T21:58:14.091Z,2.18
2022-12-23T22:01:19.819Z,2.20
2022-12-23T22:04:23.519Z,2.24
2022-12-23T22:07:26.191Z,2.27
2022-12-23T22:10:28.953Z,2.35
2022-12-23T22:13:32.187Z,2.44
2022-12-23T22:16:35.852Z,2.42
2022-12-23T22:19:38.516Z,2.43
2022-12-23T22:22:41.469Z,2.43
2022-12-23T22:25:54.932Z,2.48
2022-12-23T22:28:59.833Z,2.56
2022-12-23T22:32:02.481Z,2.49
2022-12-23T22:35:05.887Z,2.57
2022-12-23T22:38:08.831Z,2.55
2022-12-23T22:41:11.902Z,2.49
2022-12-23T22:44:15.128Z,2.49
2022-12-23T22:47:17.879Z,2.57
2022-12-23T22:50:21.920Z,2.57
2022-12-23T22:53:29.599Z,2.52
2022-12-23T22:56:32.871Z,2.44
2022-12-23T22:59:35.629Z,2.34
2022-12-23T23:02:38.116Z,2.39
2022-12-23T23:05:41.335Z,2.42
2022-12-23T23:08:44.212Z,2.57
2022-12-23T23:11:47.649Z,2.65
2022-12-23T23:14:53.284Z,2.70
2022-12-23T23:17:56.500Z,2.74
2022-12-23T23:20:59.389Z,2.78
2022-12-23T23:24:02.320Z,2.79
2022-12-23T23:27:04.974Z,2.90
2022-12-23T23:30:09.350Z,2.96
2022-12-23T23:33:12.054Z,3.05
2022-12-23T23:36:15.278Z,3.15
2022-12-23T23:39:18.070Z,3.05
2022-12-23T23:42:20.802Z,3.03
2022-12-23T23:45:23.587Z,3.02
2022-12-23T23:48:26.458Z,3.03
2022-12-23T23:51:29.178Z,3.09
2022-12-23T23:54:31.869Z,3.20
2022-12-23T23:57:34.345Z,3.42
